sensor_id;sensor_type;location;lat;lon;timestamp;pressure;altitude;pressure_sealevel;temperature;humidity
4024;BME280;2026;51.002;13.668;2023-01-19T00:03:29;97831.88;;;-1.84;80.38
4024;BME280;2026;51.002;13.668;2023-01-19T00:08:32;97838.13;;;-1.70;79.88
4024;BME280;2026;51.002;13.668;2023-01-19T00:13:37;97830.53;;;-1.63;79.54
4024;BME280;2026;51.002;13.668;2023-01-19T00:18:40;97834.94;;;-1.80;79.50
4024;BME280;2026;51.002;13.668;2023-01-19T00:23:43;97843.59;;;-1.81;79.66
4024;BME280;2026;51.002;13.668;2023-01-19T00:28:49;97844.22;;;-1.71;78.88
4024;BME280;2026;51.002;13.668;2023-01-19T00:33:53;97847.13;;;-1.99;78.92
4024;BME280;2026;51.002;13.668;2023-01-19T00:38:56;97848.41;;;-1.95;79.37
4024;BME280;2026;51.002;13.668;2023-01-19T00:44:00;97854.81;;;-2.07;79.45
4024;BME280;2026;51.002;13.668;2023-01-19T00:49:04;97862.03;;;-2.11;80.20
4024;BME280;2026;51.002;13.668;2023-01-19T00:54:07;97873.63;;;-2.07;80.17
4024;BME280;2026;51.002;13.668;2023-01-19T00:59:12;97879.88;;;-2.18;79.85
4024;BME280;2026;51.002;13.668;2023-01-19T01:04:15;97884.16;;;-2.35;79.99
4024;BME280;2026;51.002;13.668;2023-01-19T01:09:18;97879.53;;;-2.06;79.89
4024;BME280;2026;51.002;13.668;2023-01-19T01:14:22;97873.56;;;-2.40;80.68
4024;BME280;2026;51.002;13.668;2023-01-19T01:19:26;97875.00;;;-2.46;81.01
4024;BME280;2026;51.002;13.668;2023-01-19T01:24:29;97892.28;;;-2.56;81.90
4024;BME280;2026;51.002;13.668;2023-01-19T01:29:33;97892.34;;;-2.39;81.84
4024;BME280;2026;51.002;13.668;2023-01-19T01:34:36;97882.56;;;-2.36;81.20
4024;BME280;2026;51.002;13.668;2023-01-19T01:39:40;97895.34;;;-2.52;81.45
4024;BME280;2026;51.002;13.668;2023-01-19T01:44:47;97885.28;;;-2.29;80.78
4024;BME280;2026;51.002;13.668;2023-01-19T01:49:58;97899.53;;;-2.43;81.13
4024;BME280;2026;51.002;13.668;2023-01-19T01:55:05;97908.09;;;-2.34;80.56
4024;BME280;2026;51.002;13.668;2023-01-19T02:00:13;97914.44;;;-2.55;81.08
4024;BME280;2026;51.002;13.668;2023-01-19T02:05:20;97902.59;;;-2.48;80.59
4024;BME280;2026;51.002;13.668;2023-01-19T02:10:24;97901.97;;;-2.33;80.00
4024;BME280;2026;51.002;13.668;2023-01-19T02:15:46;97917.63;;;-2.53;80.94
4024;BME280;2026;51.002;13.668;2023-01-19T02:20:55;97910.91;;;-2.54;80.59
4024;BME280;2026;51.002;13.668;2023-01-19T02:26:02;97912.31;;;-2.68;81.00
4024;BME280;2026;51.002;13.668;2023-01-19T02:31:06;97924.03;;;-2.65;80.72
4024;BME280;2026;51.002;13.668;2023-01-19T02:36:11;97919.16;;;-2.77;81.76
4024;BME280;2026;51.002;13.668;2023-01-19T02:41:19;97931.91;;;-2.93;80.68
4024;BME280;2026;51.002;13.668;2023-01-19T02:46:24;97938.06;;;-3.13;81.40
4024;BME280;2026;51.002;13.668;2023-01-19T02:51:27;97932.50;;;-3.26;81.98
4024;BME280;2026;51.002;13.668;2023-01-19T02:56:38;97935.94;;;-3.17;80.62
4024;BME280;2026;51.002;13.668;2023-01-19T03:01:59;97950.22;;;-2.88;80.34
4024;BME280;2026;51.002;13.668;2023-01-19T03:07:09;97943.78;;;-2.92;79.76
4024;BME280;2026;51.002;13.668;2023-01-19T03:12:22;97942.41;;;-3.13;79.28
4024;BME280;2026;51.002;13.668;2023-01-19T03:17:27;97939.28;;;-2.98;78.47
4024;BME280;2026;51.002;13.668;2023-01-19T03:22:33;97959.34;;;-2.94;78.39
4024;BME280;2026;51.002;13.668;2023-01-19T03:27:38;97965.72;;;-2.98;77.71
4024;BME280;2026;51.002;13.668;2023-01-19T03:32:46;97969.41;;;-2.92;77.35
4024;BME280;2026;51.002;13.668;2023-01-19T03:37:51;97982.91;;;-2.90;76.72
4024;BME280;2026;51.002;13.668;2023-01-19T03:42:58;97977.34;;;-3.12;77.08
4024;BME280;2026;51.002;13.668;2023-01-19T03:48:02;97973.25;;;-2.96;76.30
4024;BME280;2026;51.002;13.668;2023-01-19T03:53:08;97971.69;;;-2.89;75.61
4024;BME280;2026;51.002;13.668;2023-01-19T03:58:13;97977.03;;;-3.09;75.38
4024;BME280;2026;51.002;13.668;2023-01-19T04:03:17;97978.97;;;-3.03;74.98
4024;BME280;2026;51.002;13.668;2023-01-19T04:08:20;97979.84;;;-2.94;74.07
4024;BME280;2026;51.002;13.668;2023-01-19T04:13:24;97993.72;;;-3.05;74.15
4024;BME280;2026;51.002;13.668;2023-01-19T04:18:31;97977.47;;;-3.14;73.63
4024;BME280;2026;51.002;13.668;2023-01-19T04:23:35;97982.50;;;-3.04;73.14
4024;BME280;2026;51.002;13.668;2023-01-19T04:28:39;97972.19;;;-3.12;73.49
4024;BME280;2026;51.002;13.668;2023-01-19T04:33:43;97976.97;;;-3.17;73.84
4024;BME280;2026;51.002;13.668;2023-01-19T04:38:46;97970.03;;;-3.25;73.06
4024;BME280;2026;51.002;13.668;2023-01-19T04:43:50;97976.59;;;-3.22;72.66
4024;BME280;2026;51.002;13.668;2023-01-19T04:48:53;97984.97;;;-3.20;71.36
4024;BME280;2026;51.002;13.668;2023-01-19T04:53:56;97982.50;;;-3.30;71.58
4024;BME280;2026;51.002;13.668;2023-01-19T04:59:00;97969.00;;;-3.14;70.59
4024;BME280;2026;51.002;13.668;2023-01-19T05:04:04;97980.38;;;-3.35;70.53
4024;BME280;2026;51.002;13.668;2023-01-19T05:09:09;97979.34;;;-3.24;70.76
4024;BME280;2026;51.002;13.668;2023-01-19T05:14:16;97982.50;;;-3.30;70.16
4024;BME280;2026;51.002;13.668;2023-01-19T05:19:19;97971.78;;;-3.25;69.90
4024;BME280;2026;51.002;13.668;2023-01-19T05:24:22;97977.50;;;-3.32;70.16
4024;BME280;2026;51.002;13.668;2023-01-19T05:29:27;97967.63;;;-3.27;69.62
4024;BME280;2026;51.002;13.668;2023-01-19T05:34:30;97971.13;;;-3.28;69.66
4024;BME280;2026;51.002;13.668;2023-01-19T05:39:33;97962.66;;;-3.46;70.56
4024;BME280;2026;51.002;13.668;2023-01-19T05:44:37;97954.63;;;-3.51;70.83
4024;BME280;2026;51.002;13.668;2023-01-19T05:49:40;97964.38;;;-3.55;70.31
4024;BME280;2026;51.002;13.668;2023-01-19T05:54:43;97956.81;;;-3.57;70.46
4024;BME280;2026;51.002;13.668;2023-01-19T05:59:47;97960.47;;;-3.59;70.10
4024;BME280;2026;51.002;13.668;2023-01-19T06:04:50;97963.09;;;-3.69;70.35
4024;BME280;2026;51.002;13.668;2023-01-19T06:09:53;97954.69;;;-3.61;70.25
4024;BME280;2026;51.002;13.668;2023-01-19T06:14:57;97964.00;;;-3.60;70.48
4024;BME280;2026;51.002;13.668;2023-01-19T06:20:01;97985.00;;;-3.75;71.40
4024;BME280;2026;51.002;13.668;2023-01-19T06:25:04;97991.38;;;-3.61;70.96
4024;BME280;2026;51.002;13.668;2023-01-19T06:30:10;97993.50;;;-3.56;71.53
4024;BME280;2026;51.002;13.668;2023-01-19T06:35:13;98007.41;;;-3.59;71.45
4024;BME280;2026;51.002;13.668;2023-01-19T06:40:17;98015.44;;;-3.54;72.11
4024;BME280;2026;51.002;13.668;2023-01-19T06:45:21;98025.56;;;-3.52;71.92
4024;BME280;2026;51.002;13.668;2023-01-19T06:50:24;98031.00;;;-3.37;71.32
4024;BME280;2026;51.002;13.668;2023-01-19T06:55:27;98029.34;;;-3.38;71.38
4024;BME280;2026;51.002;13.668;2023-01-19T07:00:31;98036.25;;;-3.20;71.41
4024;BME280;2026;51.002;13.668;2023-01-19T07:05:34;98038.81;;;-3.20;71.33
4024;BME280;2026;51.002;13.668;2023-01-19T07:10:37;98038.88;;;-3.30;71.78
4024;BME280;2026;51.002;13.668;2023-01-19T07:16:05;98040.47;;;-3.11;70.92
4024;BME280;2026;51.002;13.668;2023-01-19T07:21:08;98043.69;;;-3.09;70.99
4024;BME280;2026;51.002;13.668;2023-01-19T07:26:11;98050.53;;;-3.18;71.68
4024;BME280;2026;51.002;13.668;2023-01-19T07:31:18;98046.94;;;-3.25;71.79
4024;BME280;2026;51.002;13.668;2023-01-19T07:36:21;98050.94;;;-3.22;72.13
4024;BME280;2026;51.002;13.668;2023-01-19T07:41:24;98060.22;;;-3.03;71.55
4024;BME280;2026;51.002;13.668;2023-01-19T07:46:31;98061.06;;;-3.03;70.99
4024;BME280;2026;51.002;13.668;2023-01-19T07:51:34;98067.25;;;-2.87;70.76
4024;BME280;2026;51.002;13.668;2023-01-19T07:56:37;98070.28;;;-2.65;69.64
4024;BME280;2026;51.002;13.668;2023-01-19T08:01:41;98066.75;;;-2.64;69.79
4024;BME280;2026;51.002;13.668;2023-01-19T08:06:45;98071.03;;;-2.47;68.68
4024;BME280;2026;51.002;13.668;2023-01-19T08:11:48;98089.41;;;-2.33;68.66
4024;BME280;2026;51.002;13.668;2023-01-19T08:16:52;98088.50;;;-2.15;68.53
4024;BME280;2026;51.002;13.668;2023-01-19T08:21:56;98088.91;;;-2.02;67.93
4024;BME280;2026;51.002;13.668;2023-01-19T08:27:02;98080.59;;;-1.87;68.34
4024;BME280;2026;51.002;13.668;2023-01-19T08:32:06;98086.44;;;-1.69;68.13
4024;BME280;2026;51.002;13.668;2023-01-19T08:37:09;98087.38;;;-1.78;68.58
4024;BME280;2026;51.002;13.668;2023-01-19T08:42:13;98088.06;;;-1.59;68.90
4024;BME280;2026;51.002;13.668;2023-01-19T08:47:17;98093.91;;;-1.32;68.45
4024;BME280;2026;51.002;13.668;2023-01-19T08:52:20;98085.88;;;-1.13;67.60
4024;BME280;2026;51.002;13.668;2023-01-19T08:57:26;98093.25;;;-0.52;67.46
4024;BME280;2026;51.002;13.668;2023-01-19T09:02:30;98087.31;;;-0.04;66.46
4024;BME280;2026;51.002;13.668;2023-01-19T09:07:33;98084.06;;;-0.46;65.91
4024;BME280;2026;51.002;13.668;2023-01-19T09:12:36;98087.00;;;-0.01;65.79
4024;BME280;2026;51.002;13.668;2023-01-19T09:17:40;98078.53;;;0.22;64.45
4024;BME280;2026;51.002;13.668;2023-01-19T09:22:43;98082.72;;;0.47;63.16
4024;BME280;2026;51.002;13.668;2023-01-19T09:27:48;98090.38;;;0.87;62.80
4024;BME280;2026;51.002;13.668;2023-01-19T09:32:53;98085.47;;;0.92;63.29
4024;BME280;2026;51.002;13.668;2023-01-19T09:37:56;98094.63;;;1.56;61.76
4024;BME280;2026;51.002;13.668;2023-01-19T09:43:12;98080.78;;;2.09;60.29
4024;BME280;2026;51.002;13.668;2023-01-19T09:48:28;98088.84;;;1.99;60.54
4024;BME280;2026;51.002;13.668;2023-01-19T09:54:01;98080.78;;;2.09;61.30
4024;BME280;2026;51.002;13.668;2023-01-19T09:59:18;98079.16;;;2.60;60.49
4024;BME280;2026;51.002;13.668;2023-01-19T10:04:28;98078.97;;;2.25;60.57
4024;BME280;2026;51.002;13.668;2023-01-19T10:09:39;98070.16;;;2.34;59.96
4024;BME280;2026;51.002;13.668;2023-01-19T10:14:52;98074.44;;;2.48;59.43
4024;BME280;2026;51.002;13.668;2023-01-19T10:20:00;98063.63;;;2.60;58.41
4024;BME280;2026;51.002;13.668;2023-01-19T10:25:13;98082.41;;;2.10;61.49
4024;BME280;2026;51.002;13.668;2023-01-19T10:30:20;98060.31;;;2.66;60.56
4024;BME280;2026;51.002;13.668;2023-01-19T10:35:26;98066.22;;;1.71;61.89
4024;BME280;2026;51.002;13.668;2023-01-19T10:40:32;98069.16;;;1.98;61.86
4024;BME280;2026;51.002;13.668;2023-01-19T10:45:36;98065.13;;;1.65;63.25
4024;BME280;2026;51.002;13.668;2023-01-19T10:50:41;98059.97;;;1.65;63.92
4024;BME280;2026;51.002;13.668;2023-01-19T10:55:43;98052.72;;;2.43;61.68
4024;BME280;2026;51.002;13.668;2023-01-19T11:00:46;98056.25;;;2.20;62.34
4024;BME280;2026;51.002;13.668;2023-01-19T11:05:51;98059.69;;;2.42;63.03
4024;BME280;2026;51.002;13.668;2023-01-19T11:10:58;98060.91;;;2.46;62.36
4024;BME280;2026;51.002;13.668;2023-01-19T11:16:04;98057.44;;;2.39;62.10
4024;BME280;2026;51.002;13.668;2023-01-19T11:21:12;98062.81;;;2.59;61.89
4024;BME280;2026;51.002;13.668;2023-01-19T11:26:24;98053.41;;;2.73;61.14
4024;BME280;2026;51.002;13.668;2023-01-19T11:31:32;98054.03;;;2.75;61.46
4024;BME280;2026;51.002;13.668;2023-01-19T11:36:37;98058.59;;;2.36;63.10
4024;BME280;2026;51.002;13.668;2023-01-19T11:41:41;98063.84;;;2.21;61.79
4024;BME280;2026;51.002;13.668;2023-01-19T11:46:48;98052.06;;;2.19;62.62
4024;BME280;2026;51.002;13.668;2023-01-19T11:52:01;98067.63;;;2.04;62.81
4024;BME280;2026;51.002;13.668;2023-01-19T11:57:09;98061.50;;;2.27;62.20
4024;BME280;2026;51.002;13.668;2023-01-19T12:02:24;98058.31;;;2.46;60.99
4024;BME280;2026;51.002;13.668;2023-01-19T12:07:32;98068.31;;;2.71;61.00
4024;BME280;2026;51.002;13.668;2023-01-19T12:12:37;98065.28;;;2.46;62.09
4024;BME280;2026;51.002;13.668;2023-01-19T12:17:44;98057.06;;;2.20;61.89
4024;BME280;2026;51.002;13.668;2023-01-19T12:22:57;98061.72;;;2.10;62.13
4024;BME280;2026;51.002;13.668;2023-01-19T12:28:02;98052.47;;;2.38;62.31
4024;BME280;2026;51.002;13.668;2023-01-19T12:33:30;98060.50;;;2.64;60.28
4024;BME280;2026;51.002;13.668;2023-01-19T12:38:57;98059.34;;;2.52;60.91
4024;BME280;2026;51.002;13.668;2023-01-19T12:44:35;98055.53;;;2.26;62.26
4024;BME280;2026;51.002;13.668;2023-01-19T12:49:40;98051.16;;;2.27;61.23
4024;BME280;2026;51.002;13.668;2023-01-19T12:54:53;98049.19;;;2.29;62.49
4024;BME280;2026;51.002;13.668;2023-01-19T12:59:59;98060.75;;;2.11;64.04
4024;BME280;2026;51.002;13.668;2023-01-19T13:05:15;98065.03;;;2.04;63.32
4024;BME280;2026;51.002;13.668;2023-01-19T13:27:51;98035.59;;;2.05;61.79
4024;BME280;2026;51.002;13.668;2023-01-19T13:32:56;98038.41;;;1.58;63.77
4024;BME280;2026;51.002;13.668;2023-01-19T13:38:02;98042.16;;;1.71;63.63
4024;BME280;2026;51.002;13.668;2023-01-19T13:43:14;98045.69;;;1.70;63.87
4024;BME280;2026;51.002;13.668;2023-01-19T13:48:19;98045.06;;;1.37;64.66
4024;BME280;2026;51.002;13.668;2023-01-19T13:53:23;98044.91;;;1.39;65.19
4024;BME280;2026;51.002;13.668;2023-01-19T13:58:28;98041.88;;;1.35;64.71
4024;BME280;2026;51.002;13.668;2023-01-19T14:03:32;98054.25;;;1.25;65.71
4024;BME280;2026;51.002;13.668;2023-01-19T14:08:35;98052.19;;;1.35;65.33
4024;BME280;2026;51.002;13.668;2023-01-19T14:13:42;98048.31;;;1.39;65.32
4024;BME280;2026;51.002;13.668;2023-01-19T14:18:57;98069.22;;;1.45;66.31
4024;BME280;2026;51.002;13.668;2023-01-19T14:24:05;98072.69;;;1.37;65.88
4024;BME280;2026;51.002;13.668;2023-01-19T14:29:20;98067.78;;;1.27;65.79
4024;BME280;2026;51.002;13.668;2023-01-19T14:34:31;98070.22;;;1.05;67.17
4024;BME280;2026;51.002;13.668;2023-01-19T14:39:34;98068.47;;;1.06;67.41
4024;BME280;2026;51.002;13.668;2023-01-19T14:44:39;98059.91;;;1.05;66.65
4024;BME280;2026;51.002;13.668;2023-01-19T14:49:45;98060.84;;;0.89;66.47
4024;BME280;2026;51.002;13.668;2023-01-19T14:54:49;98063.09;;;0.69;67.16
4024;BME280;2026;51.002;13.668;2023-01-19T14:59:54;98068.13;;;0.62;67.58
4024;BME280;2026;51.002;13.668;2023-01-19T15:04:57;98067.50;;;0.60;67.74
4024;BME280;2026;51.002;13.668;2023-01-19T15:10:01;98071.06;;;0.59;68.10
4024;BME280;2026;51.002;13.668;2023-01-19T15:15:12;98075.97;;;0.46;68.87
4024;BME280;2026;51.002;13.668;2023-01-19T15:20:17;98087.66;;;0.25;69.74
4024;BME280;2026;51.002;13.668;2023-01-19T15:25:22;98096.53;;;0.30;68.65
4024;BME280;2026;51.002;13.668;2023-01-19T15:30:29;98099.78;;;0.24;68.86
4024;BME280;2026;51.002;13.668;2023-01-19T15:35:34;98112.50;;;0.17;69.85
4024;BME280;2026;51.002;13.668;2023-01-19T15:40:37;98109.66;;;0.12;69.49
4024;BME280;2026;51.002;13.668;2023-01-19T15:45:42;98114.03;;;0.03;68.71
4024;BME280;2026;51.002;13.668;2023-01-19T15:50:46;98120.31;;;0.01;68.81
4024;BME280;2026;51.002;13.668;2023-01-19T15:55:50;98119.78;;;0.14;67.91
4024;BME280;2026;51.002;13.668;2023-01-19T16:00:55;98125.47;;;0.01;67.89
4024;BME280;2026;51.002;13.668;2023-01-19T16:05:59;98125.53;;;-0.16;68.73
4024;BME280;2026;51.002;13.668;2023-01-19T16:11:04;98133.13;;;-0.31;69.26
4024;BME280;2026;51.002;13.668;2023-01-19T16:16:22;98142.13;;;-0.27;69.26
4024;BME280;2026;51.002;13.668;2023-01-19T16:21:25;98132.97;;;-0.38;70.21
4024;BME280;2026;51.002;13.668;2023-01-19T16:26:30;98144.25;;;-0.55;70.33
4024;BME280;2026;51.002;13.668;2023-01-19T16:31:36;98157.59;;;-0.35;69.56
4024;BME280;2026;51.002;13.668;2023-01-19T16:36:41;98150.88;;;-0.53;69.98
4024;BME280;2026;51.002;13.668;2023-01-19T16:41:44;98152.78;;;-0.38;69.29
4024;BME280;2026;51.002;13.668;2023-01-19T16:46:49;98156.66;;;-0.59;70.71
4024;BME280;2026;51.002;13.668;2023-01-19T16:51:52;98161.31;;;-0.71;70.79
4024;BME280;2026;51.002;13.668;2023-01-19T16:56:56;98162.44;;;-0.65;70.99
4024;BME280;2026;51.002;13.668;2023-01-19T17:02:00;98156.81;;;-0.60;70.13
4024;BME280;2026;51.002;13.668;2023-01-19T17:07:04;98155.06;;;-0.68;70.43
4024;BME280;2026;51.002;13.668;2023-01-19T17:12:07;98157.28;;;-0.65;70.30
4024;BME280;2026;51.002;13.668;2023-01-19T17:17:11;98163.41;;;-0.74;71.05
4024;BME280;2026;51.002;13.668;2023-01-19T17:22:14;98162.44;;;-0.82;71.49
4024;BME280;2026;51.002;13.668;2023-01-19T17:27:17;98160.84;;;-0.91;71.13
4024;BME280;2026;51.002;13.668;2023-01-19T17:32:21;98177.25;;;-0.92;71.13
4024;BME280;2026;51.002;13.668;2023-01-19T17:37:24;98177.56;;;-0.95;71.67
4024;BME280;2026;51.002;13.668;2023-01-19T17:42:27;98179.34;;;-0.87;71.38
4024;BME280;2026;51.002;13.668;2023-01-19T17:47:31;98182.56;;;-0.77;71.05
4024;BME280;2026;51.002;13.668;2023-01-19T17:52:34;98184.00;;;-0.74;71.45
4024;BME280;2026;51.002;13.668;2023-01-19T17:57:37;98181.75;;;-0.77;72.28
4024;BME280;2026;51.002;13.668;2023-01-19T18:02:41;98192.69;;;-0.59;71.53
4024;BME280;2026;51.002;13.668;2023-01-19T18:07:44;98195.13;;;-0.74;72.71
4024;BME280;2026;51.002;13.668;2023-01-19T18:12:47;98189.50;;;-0.53;72.17
4024;BME280;2026;51.002;13.668;2023-01-19T18:17:52;98194.63;;;-0.44;72.37
4024;BME280;2026;51.002;13.668;2023-01-19T18:22:55;98196.25;;;-0.43;72.38
4024;BME280;2026;51.002;13.668;2023-01-19T18:27:58;98199.28;;;-0.31;71.71
4024;BME280;2026;51.002;13.668;2023-01-19T18:33:02;98194.47;;;-0.26;72.13
4024;BME280;2026;51.002;13.668;2023-01-19T18:38:06;98204.13;;;-0.20;71.84
4024;BME280;2026;51.002;13.668;2023-01-19T18:43:10;98196.41;;;-0.20;72.60
4024;BME280;2026;51.002;13.668;2023-01-19T18:48:15;98199.44;;;-0.16;72.57
4024;BME280;2026;51.002;13.668;2023-01-19T18:53:18;98208.28;;;-0.11;71.96
4024;BME280;2026;51.002;13.668;2023-01-19T18:58:22;98206.03;;;-0.05;72.03
4024;BME280;2026;51.002;13.668;2023-01-19T19:03:27;98211.81;;;-0.03;71.89
4024;BME280;2026;51.002;13.668;2023-01-19T19:08:30;98214.38;;;0.05;71.45
4024;BME280;2026;51.002;13.668;2023-01-19T19:13:34;98223.91;;;-0.04;72.69
4024;BME280;2026;51.002;13.668;2023-01-19T19:18:39;98225.81;;;0.02;72.78
4024;BME280;2026;51.002;13.668;2023-01-19T19:23:42;98235.63;;;0.07;73.07
4024;BME280;2026;51.002;13.668;2023-01-19T19:28:45;98236.44;;;0.16;72.58
4024;BME280;2026;51.002;13.668;2023-01-19T19:33:49;98235.75;;;0.30;72.40
4024;BME280;2026;51.002;13.668;2023-01-19T19:38:53;98241.59;;;0.16;71.76
4024;BME280;2026;51.002;13.668;2023-01-19T19:43:56;98234.31;;;0.28;72.10
4024;BME280;2026;51.002;13.668;2023-01-19T19:49:01;98243.66;;;0.29;72.66
4024;BME280;2026;51.002;13.668;2023-01-19T19:54:04;98244.44;;;0.38;72.37
4024;BME280;2026;51.002;13.668;2023-01-19T19:59:07;98255.22;;;0.33;72.09
4024;BME280;2026;51.002;13.668;2023-01-19T20:04:12;98263.78;;;0.34;72.78
4024;BME280;2026;51.002;13.668;2023-01-19T20:09:16;98263.66;;;0.27;73.09
4024;BME280;2026;51.002;13.668;2023-01-19T20:14:19;98268.13;;;0.33;72.65
4024;BME280;2026;51.002;13.668;2023-01-19T20:19:24;98270.53;;;0.43;72.29
4024;BME280;2026;51.002;13.668;2023-01-19T20:24:27;98286.94;;;0.58;72.21
4024;BME280;2026;51.002;13.668;2023-01-19T20:29:30;98279.56;;;0.47;72.49
4024;BME280;2026;51.002;13.668;2023-01-19T20:34:34;98277.59;;;0.49;72.73
4024;BME280;2026;51.002;13.668;2023-01-19T20:39:37;98279.88;;;0.44;73.25
4024;BME280;2026;51.002;13.668;2023-01-19T20:44:40;98284.03;;;0.62;72.39
4024;BME280;2026;51.002;13.668;2023-01-19T20:49:45;98282.41;;;0.69;72.34
4024;BME280;2026;51.002;13.668;2023-01-19T20:54:48;98288.97;;;0.71;72.99
4024;BME280;2026;51.002;13.668;2023-01-19T20:59:52;98298.50;;;0.71;72.28
4024;BME280;2026;51.002;13.668;2023-01-19T21:04:57;98293.69;;;0.60;72.93
4024;BME280;2026;51.002;13.668;2023-01-19T21:10:00;98300.50;;;0.44;74.43
4024;BME280;2026;51.002;13.668;2023-01-19T21:15:03;98314.38;;;0.43;74.84
4024;BME280;2026;51.002;13.668;2023-01-19T21:20:09;98321.13;;;0.44;75.29
4024;BME280;2026;51.002;13.668;2023-01-19T21:25:12;98322.09;;;0.51;75.22
4024;BME280;2026;51.002;13.668;2023-01-19T21:30:16;98325.63;;;0.50;75.25
4024;BME280;2026;51.002;13.668;2023-01-19T21:35:21;98326.25;;;0.61;74.98
4024;BME280;2026;51.002;13.668;2023-01-19T21:40:24;98329.78;;;0.68;75.20
4024;BME280;2026;51.002;13.668;2023-01-19T21:45:26;98336.72;;;0.67;74.78
4024;BME280;2026;51.002;13.668;2023-01-19T21:50:31;98332.38;;;0.68;75.45
4024;BME280;2026;51.002;13.668;2023-01-19T21:55:34;98344.75;;;0.72;75.39
4024;BME280;2026;51.002;13.668;2023-01-19T22:00:37;98345.94;;;0.70;75.31
4024;BME280;2026;51.002;13.668;2023-01-19T22:05:41;98349.47;;;0.77;75.52
4024;BME280;2026;51.002;13.668;2023-01-19T22:10:44;98352.34;;;0.74;75.84
4024;BME280;2026;51.002;13.668;2023-01-19T22:15:47;98355.25;;;0.79;75.73
4024;BME280;2026;51.002;13.668;2023-01-19T22:20:51;98361.00;;;0.90;75.90
4024;BME280;2026;51.002;13.668;2023-01-19T22:25:57;98360.22;;;0.89;76.25
4024;BME280;2026;51.002;13.668;2023-01-19T22:31:05;98365.53;;;0.96;76.35
4024;BME280;2026;51.002;13.668;2023-01-19T22:36:13;98356.63;;;1.38;85.05
4024;BME280;2026;51.002;13.668;2023-01-19T22:41:18;98365.31;;;1.46;79.77
4024;BME280;2026;51.002;13.668;2023-01-19T22:46:23;98371.97;;;1.40;77.79
4024;BME280;2026;51.002;13.668;2023-01-19T22:51:29;98364.59;;;1.29;77.76
4024;BME280;2026;51.002;13.668;2023-01-19T22:56:34;98368.63;;;1.23;77.63
4024;BME280;2026;51.002;13.668;2023-01-19T23:01:39;98364.78;;;1.19;77.77
4024;BME280;2026;51.002;13.668;2023-01-19T23:06:44;98363.97;;;1.18;77.58
4024;BME280;2026;51.002;13.668;2023-01-19T23:11:51;98368.53;;;1.08;78.54
4024;BME280;2026;51.002;13.668;2023-01-19T23:16:54;98363.47;;;1.23;78.07
4024;BME280;2026;51.002;13.668;2023-01-19T23:21:58;98372.56;;;1.10;78.48
4024;BME280;2026;51.002;13.668;2023-01-19T23:27:01;98369.13;;;1.18;78.68
4024;BME280;2026;51.002;13.668;2023-01-19T23:32:04;98373.56;;;1.09;79.36
4024;BME280;2026;51.002;13.668;2023-01-19T23:37:08;98371.44;;;1.13;79.81
4024;BME280;2026;51.002;13.668;2023-01-19T23:42:11;98371.75;;;1.10;79.80
4024;BME280;2026;51.002;13.668;2023-01-19T23:47:14;98367.25;;;1.04;80.50
4024;BME280;2026;51.002;13.668;2023-01-19T23:52:18;98356.56;;;1.15;80.08
4024;BME280;2026;51.002;13.668;2023-01-19T23:57:21;98373.25;;;1.04;81.29
